createdAt,value
2018-06-02T00:01:31.122Z,20.58
2018-06-02T00:04:01.462Z,20.51
2018-06-02T00:06:33.173Z,20.35
2018-06-02T00:09:22.736Z,20.45
2018-06-02T00:14:42.429Z,20.40
2018-06-02T00:17:14.660Z,20.37
2018-06-02T00:19:45.231Z,20.23
2018-06-02T00:22:15.750Z,20.17
2018-06-02T00:24:46.556Z,20.09
2018-06-02T00:27:19.854Z,20.12
2018-06-02T00:29:57.326Z,20.03
2018-06-02T00:32:29.103Z,20.07
2018-06-02T00:35:00.437Z,20.16
2018-06-02T00:37:42.092Z,20.26
2018-06-02T00:40:12.996Z,20.09
2018-06-02T00:42:43.771Z,20.07
2018-06-02T00:47:54.716Z,19.99
2018-06-02T00:50:27.835Z,20.08
2018-06-02T00:52:58.293Z,20.19
2018-06-02T00:55:28.860Z,20.34
2018-06-02T00:58:03.362Z,20.30
2018-06-02T01:00:36.488Z,20.28
2018-06-02T01:03:07.884Z,20.17
2018-06-02T01:05:38.385Z,20.33
2018-06-02T01:08:17.443Z,20.54
2018-06-02T01:10:48.260Z,20.65
2018-06-02T01:13:18.783Z,20.60
2018-06-02T01:15:49.645Z,20.59
2018-06-02T01:18:20.057Z,20.52
2018-06-02T01:20:50.769Z,20.66
2018-06-02T01:23:21.218Z,20.69
2018-06-02T01:25:51.945Z,20.44
2018-06-02T01:28:22.458Z,20.25
2018-06-02T01:30:53.139Z,20.18
2018-06-02T01:33:24.037Z,20.13
2018-06-02T01:35:54.870Z,20.14
2018-06-02T01:38:25.231Z,20.12
2018-06-02T01:40:56.290Z,20.13
2018-06-02T01:43:27.197Z,20.14
2018-06-02T01:45:58.202Z,20.18
2018-06-02T01:48:29.271Z,20.13
2018-06-02T01:50:59.957Z,20.20
2018-06-02T01:53:30.881Z,20.19
2018-06-02T01:56:01.325Z,20.18
2018-06-02T01:58:31.975Z,20.28
2018-06-02T02:01:03.078Z,20.55
2018-06-02T02:03:33.493Z,20.70
2018-06-02T02:06:04.504Z,20.60
2018-06-02T02:08:35.786Z,20.58
2018-06-02T02:11:06.717Z,20.58
2018-06-02T02:13:38.646Z,20.53
2018-06-02T02:16:10.415Z,20.47
2018-06-02T02:18:42.030Z,20.48
2018-06-02T02:21:13.177Z,20.53
2018-06-02T02:23:43.596Z,20.56
2018-06-02T02:26:22.821Z,20.43
2018-06-02T02:28:53.171Z,20.24
2018-06-02T02:31:24.002Z,20.27
2018-06-02T02:33:54.629Z,20.18
2018-06-02T02:36:25.157Z,20.22
2018-06-02T02:38:55.512Z,20.30
2018-06-02T02:41:26.266Z,20.40
2018-06-02T02:43:56.710Z,20.56
2018-06-02T02:46:28.172Z,20.58
2018-06-02T02:48:58.884Z,20.62
2018-06-02T02:51:29.724Z,20.48
2018-06-02T02:54:00.291Z,20.46
2018-06-02T02:56:31.477Z,20.61
2018-06-02T02:59:02.126Z,20.54
2018-06-02T03:01:33.698Z,20.46
2018-06-02T03:04:05.022Z,20.16
2018-06-02T03:06:36.878Z,20.37
2018-06-02T03:09:08.656Z,20.33
2018-06-02T03:11:39.451Z,20.39
2018-06-02T03:14:10.802Z,20.57
2018-06-02T03:16:42.449Z,20.66
2018-06-02T03:19:13.219Z,20.76
2018-06-02T03:21:44.698Z,20.75
2018-06-02T03:24:15.949Z,20.65
2018-06-02T03:26:47.847Z,20.58
2018-06-02T03:29:18.825Z,20.56
2018-06-02T03:31:49.970Z,20.64
2018-06-02T03:34:20.770Z,20.75
2018-06-02T03:36:51.563Z,20.76
2018-06-02T03:39:22.732Z,20.80
2018-06-02T03:41:53.159Z,20.63
2018-06-02T03:44:23.681Z,20.53
2018-06-02T03:46:54.209Z,20.52
2018-06-02T03:49:24.758Z,20.57
2018-06-02T03:51:55.551Z,20.66
2018-06-02T03:54:26.097Z,20.73
2018-06-02T03:56:56.545Z,20.81
2018-06-02T03:59:27.283Z,20.91
2018-06-02T04:01:58.056Z,20.90
2018-06-02T04:04:28.450Z,20.96
2018-06-02T04:06:59.971Z,20.93
2018-06-02T04:09:33.810Z,20.95
2018-06-02T04:12:06.022Z,21.00
2018-06-02T04:14:36.809Z,20.77
2018-06-02T04:17:07.434Z,20.90
2018-06-02T04:19:38.978Z,20.95
2018-06-02T04:22:10.130Z,20.95
2018-06-02T04:24:46.377Z,20.87
2018-06-02T04:27:20.216Z,20.95
2018-06-02T04:29:52.634Z,20.91
2018-06-02T04:32:23.382Z,20.80
2018-06-02T04:34:55.047Z,20.83
2018-06-02T04:37:25.842Z,20.83
2018-06-02T04:39:56.189Z,20.99
2018-06-02T04:42:26.983Z,21.00
2018-06-02T04:44:57.472Z,20.86
2018-06-02T04:47:28.079Z,20.96
2018-06-02T04:49:58.868Z,20.90
2018-06-02T04:52:29.535Z,20.98
2018-06-02T04:55:02.140Z,21.02
2018-06-02T04:57:33.073Z,20.97
2018-06-02T05:00:05.141Z,21.06
2018-06-02T05:02:36.048Z,21.03
2018-06-02T05:05:06.959Z,21.06
2018-06-02T05:07:37.511Z,21.09
2018-06-02T05:10:07.964Z,21.19
2018-06-02T05:12:40.447Z,21.37
2018-06-02T05:15:17.174Z,21.33
2018-06-02T05:17:48.069Z,21.23
2018-06-02T05:20:19.771Z,21.41
2018-06-02T05:23:05.525Z,21.37
2018-06-02T05:25:36.554Z,21.54
2018-06-02T05:28:07.166Z,21.53
2018-06-02T05:30:39.799Z,21.40
2018-06-02T05:33:12.242Z,21.34
2018-06-02T05:35:45.397Z,21.49
2018-06-02T05:38:16.672Z,21.39
2018-06-02T05:40:58.489Z,21.31
2018-06-02T05:43:30.411Z,21.22
2018-06-02T05:46:01.321Z,21.26
2018-06-02T05:48:36.799Z,21.17
2018-06-02T05:51:07.999Z,21.20
2018-06-02T05:53:39.777Z,21.36
2018-06-02T05:56:12.161Z,21.34
2018-06-02T05:58:43.771Z,21.32
2018-06-02T06:01:17.700Z,21.11
2018-06-02T06:03:49.092Z,21.25
2018-06-02T06:06:30.868Z,21.28
2018-06-02T06:09:02.283Z,21.40
2018-06-02T06:11:35.993Z,21.45
2018-06-02T06:14:06.916Z,21.39
2018-06-02T06:16:37.654Z,21.46
2018-06-02T06:19:08.488Z,21.40
2018-06-02T06:21:40.673Z,21.29
2018-06-02T06:24:11.754Z,21.32
2018-06-02T06:26:42.770Z,21.21
2018-06-02T06:32:01.814Z,21.38
2018-06-02T06:34:34.178Z,21.43
2018-06-02T06:37:07.013Z,21.36
2018-06-02T06:39:39.395Z,21.19
2018-06-02T06:42:10.433Z,21.18
2018-06-02T06:44:42.217Z,21.17
2018-06-02T06:47:13.460Z,21.26
2018-06-02T06:49:44.295Z,21.22
2018-06-02T06:52:19.846Z,21.29
2018-06-02T06:55:04.124Z,21.37
2018-06-02T07:00:21.149Z,21.22
2018-06-02T07:02:55.238Z,21.33
2018-06-02T07:05:26.892Z,21.23
2018-06-02T07:10:39.241Z,21.40
2018-06-02T07:13:10.116Z,21.43
2018-06-02T07:15:45.492Z,21.26
2018-06-02T07:18:23.296Z,21.36
2018-06-02T07:20:57.275Z,21.34
2018-06-02T07:23:29.049Z,21.40
2018-06-02T07:26:01.164Z,21.48
2018-06-02T07:28:33.787Z,21.50
2018-06-02T07:31:06.211Z,21.62
2018-06-02T07:33:45.713Z,21.69
2018-06-02T07:36:16.365Z,21.76
2018-06-02T07:38:49.243Z,21.64
2018-06-02T07:46:42.976Z,21.68
2018-06-02T07:49:14.689Z,21.55
2018-06-02T07:51:46.485Z,21.55
2018-06-02T07:54:17.550Z,21.51
2018-06-02T07:56:48.802Z,21.32
2018-06-02T07:59:27.952Z,21.56
2018-06-02T08:02:00.448Z,21.52
2018-06-02T08:04:34.949Z,21.61
2018-06-02T08:07:20.547Z,21.65
2018-06-02T08:10:05.397Z,21.51
2018-06-02T08:12:46.733Z,21.50
2018-06-02T08:15:20.107Z,21.53
2018-06-02T08:17:53.759Z,21.36
2018-06-02T08:20:32.903Z,21.56
2018-06-02T08:25:57.160Z,22.00
2018-06-02T08:28:30.732Z,21.98
2018-06-02T08:31:33.169Z,22.05
2018-06-02T08:36:30.340Z,22.33
2018-06-02T08:39:02.380Z,22.45
2018-06-02T08:41:35.474Z,22.61
2018-06-02T08:44:07.991Z,22.43
2018-06-02T08:46:39.949Z,22.46
2018-06-02T08:49:10.885Z,22.34
2018-06-02T08:54:17.158Z,22.21
2018-06-02T08:56:51.127Z,22.17
2018-06-02T08:59:24.435Z,21.90
2018-06-02T09:01:58.015Z,21.66
2018-06-02T09:04:50.472Z,21.83
2018-06-02T09:07:28.404Z,21.95
2018-06-02T09:10:02.560Z,22.16
2018-06-02T09:12:33.450Z,22.53
2018-06-02T09:15:07.505Z,22.61
2018-06-02T09:17:46.708Z,22.74
2018-06-02T09:20:23.199Z,22.98
2018-06-02T09:22:56.047Z,23.19
2018-06-02T09:25:30.358Z,23.33
2018-06-02T09:28:01.998Z,23.56
2018-06-02T09:30:41.495Z,23.65
2018-06-02T09:33:23.660Z,23.62
2018-06-02T09:35:56.118Z,23.48
2018-06-02T09:41:17.054Z,24.09
2018-06-02T09:43:50.233Z,23.91
2018-06-02T09:46:36.667Z,24.01
2018-06-02T09:49:11.566Z,24.32
2018-06-02T09:51:49.758Z,24.69
2018-06-02T09:54:43.866Z,24.91
2018-06-02T09:57:20.990Z,24.70
2018-06-02T09:59:54.173Z,24.43
2018-06-02T10:02:25.621Z,24.44
2018-06-02T10:04:59.122Z,24.31
2018-06-02T10:07:41.659Z,24.10
2018-06-02T10:10:12.902Z,24.17
2018-06-02T10:12:45.328Z,24.51
2018-06-02T10:15:19.573Z,24.77
2018-06-02T10:17:51.103Z,24.62
2018-06-02T10:20:22.683Z,24.62
2018-06-02T10:22:54.210Z,24.46
2018-06-02T10:25:25.847Z,24.54
2018-06-02T10:27:56.349Z,24.71
2018-06-02T10:30:27.928Z,24.63
2018-06-02T10:32:59.922Z,24.74
2018-06-02T10:35:31.633Z,25.06
2018-06-02T10:38:05.659Z,25.47
2018-06-02T10:40:39.965Z,25.69
2018-06-02T10:43:11.934Z,25.90
2018-06-02T10:45:45.862Z,26.11
2018-06-02T10:48:16.554Z,26.17
2018-06-02T10:50:48.553Z,26.28
2018-06-02T10:53:20.426Z,26.49
2018-06-02T10:55:52.726Z,26.61
2018-06-02T10:58:29.542Z,26.27
2018-06-02T11:01:00.691Z,26.05
2018-06-02T11:03:32.344Z,25.91
2018-06-02T11:06:03.989Z,25.82
2018-06-02T11:08:36.530Z,25.87
2018-06-02T11:11:10.479Z,26.14
2018-06-02T11:16:44.716Z,26.32
2018-06-02T11:19:16.726Z,26.23
2018-06-02T11:21:48.351Z,26.28
2018-06-02T11:24:25.953Z,26.32
2018-06-02T11:26:57.172Z,25.93
2018-06-02T11:29:41.890Z,25.79
2018-06-02T11:32:28.139Z,26.00
2018-06-02T11:35:00.538Z,26.29
2018-06-02T11:37:31.364Z,26.69
2018-06-02T11:40:03.116Z,26.83
2018-06-02T11:42:34.503Z,27.03
2018-06-02T11:45:13.173Z,27.21
2018-06-02T11:47:45.908Z,27.64
2018-06-02T11:50:19.126Z,27.72
2018-06-02T11:52:50.813Z,27.48
2018-06-02T11:55:26.973Z,28.18
2018-06-02T11:58:12.953Z,28.44
2018-06-02T12:00:49.658Z,29.22
2018-06-02T12:03:25.233Z,30.15
2018-06-02T12:05:56.222Z,31.05
2018-06-02T12:08:28.687Z,31.14
2018-06-02T12:10:59.277Z,30.54
2018-06-02T12:13:48.496Z,31.11
2018-06-02T12:16:32.018Z,31.36
2018-06-02T12:19:03.491Z,31.62
2018-06-02T12:21:33.845Z,31.50
2018-06-02T12:24:05.993Z,30.77
2018-06-02T12:26:37.107Z,30.15
2018-06-02T12:29:08.793Z,29.48
2018-06-02T12:31:44.750Z,29.19
2018-06-02T12:34:17.669Z,28.76
2018-06-02T12:36:50.321Z,28.53
2018-06-02T12:39:22.622Z,28.21
2018-06-02T12:44:37.851Z,28.71
2018-06-02T12:47:09.144Z,28.59
2018-06-02T12:49:42.359Z,27.83
2018-06-02T12:52:13.478Z,27.79
2018-06-02T12:54:46.171Z,27.73
2018-06-02T12:57:20.330Z,27.83
2018-06-02T12:59:53.864Z,27.67
2018-06-02T13:02:34.411Z,27.49
2018-06-02T13:05:09.187Z,27.50
2018-06-02T13:07:41.694Z,27.75
2018-06-02T13:10:17.985Z,28.17
2018-06-02T13:12:49.107Z,28.32
2018-06-02T13:15:23.600Z,28.39
2018-06-02T13:17:54.361Z,28.08
2018-06-02T13:22:56.933Z,28.35
2018-06-02T13:25:29.570Z,28.08
2018-06-02T13:28:06.344Z,27.84
2018-06-02T13:30:53.646Z,27.71
2018-06-02T13:33:25.133Z,27.82
2018-06-02T13:35:56.361Z,27.59
2018-06-02T13:38:28.703Z,27.45
2018-06-02T13:41:02.100Z,27.88
2018-06-02T13:43:34.863Z,27.93
2018-06-02T13:46:06.269Z,28.31
2018-06-02T13:48:37.538Z,28.49
2018-06-02T13:51:14.902Z,28.28
2018-06-02T13:53:46.394Z,28.29
2018-06-02T13:56:24.810Z,28.28
2018-06-02T13:59:26.061Z,28.19
2018-06-02T14:02:17.021Z,27.73
2018-06-02T14:04:58.995Z,27.59
2018-06-02T14:07:40.018Z,27.98
2018-06-02T14:10:34.572Z,28.14
2018-06-02T14:13:11.196Z,28.46
2018-06-02T14:15:52.639Z,28.96
2018-06-02T14:18:31.705Z,28.39
2018-06-02T14:21:20.191Z,28.29
2018-06-02T14:24:20.820Z,28.63
2018-06-02T14:26:59.044Z,28.61
2018-06-02T14:29:33.438Z,29.17
2018-06-02T14:32:13.308Z,28.95
2018-06-02T14:34:59.152Z,28.55
2018-06-02T14:37:35.165Z,28.62
2018-06-02T14:40:15.397Z,28.44
2018-06-02T14:42:48.831Z,27.87
2018-06-02T14:45:23.974Z,27.49
2018-06-02T14:47:58.444Z,26.95
2018-06-02T14:50:41.015Z,27.03
2018-06-02T14:53:20.064Z,27.10
2018-06-02T14:55:57.527Z,27.15
2018-06-02T14:58:32.642Z,27.08
2018-06-02T15:01:15.473Z,26.95
2018-06-02T15:03:56.166Z,26.68
2018-06-02T15:06:29.866Z,26.62
2018-06-02T15:09:06.951Z,26.64
2018-06-02T15:11:42.845Z,26.64
2018-06-02T15:17:42.236Z,26.47
2018-06-02T15:20:25.380Z,26.51
2018-06-02T15:23:01.300Z,26.31
2018-06-02T15:25:36.790Z,26.36
2018-06-02T15:28:13.474Z,26.37
2018-06-02T15:30:46.816Z,25.96
2018-06-02T15:33:24.884Z,25.79
2018-06-02T15:35:56.269Z,25.57
2018-06-02T15:38:32.769Z,25.69
2018-06-02T15:41:07.067Z,25.70
2018-06-02T15:43:37.694Z,25.77
2018-06-02T15:46:12.355Z,25.90
2018-06-02T15:48:55.496Z,26.18
2018-06-02T15:51:35.892Z,26.36
2018-06-02T15:54:08.269Z,26.50
2018-06-02T15:56:41.177Z,26.74
2018-06-02T15:59:16.538Z,26.65
2018-06-02T16:01:59.828Z,26.60
2018-06-02T16:04:51.329Z,26.53
2018-06-02T16:07:25.468Z,26.77
2018-06-02T16:09:57.782Z,26.94
2018-06-02T16:12:32.525Z,26.88
2018-06-02T16:15:06.289Z,26.86
2018-06-02T16:17:39.992Z,26.53
2018-06-02T16:20:11.279Z,26.27
2018-06-02T16:22:41.670Z,26.12
2018-06-02T16:25:17.120Z,25.72
2018-06-02T16:28:15.797Z,25.55
2018-06-02T16:30:52.217Z,25.63
2018-06-02T16:33:27.401Z,25.79
2018-06-02T16:36:03.667Z,25.90
2018-06-02T16:38:36.652Z,25.63
2018-06-02T16:41:11.744Z,25.62
2018-06-02T16:43:44.514Z,25.58
2018-06-02T16:46:17.486Z,25.62
2018-06-02T16:48:53.618Z,25.60
2018-06-02T16:51:28.657Z,25.67
2018-06-02T16:54:01.742Z,25.79
2018-06-02T16:56:48.654Z,25.97
2018-06-02T16:59:35.631Z,26.02
2018-06-02T17:02:09.500Z,25.99
2018-06-02T17:04:41.172Z,25.71
2018-06-02T17:07:12.787Z,25.63
2018-06-02T17:09:44.307Z,25.65
2018-06-02T17:12:19.817Z,25.61
2018-06-02T17:15:03.265Z,25.79
2018-06-02T17:17:39.228Z,25.77
2018-06-02T17:20:18.191Z,25.68
2018-06-02T17:22:58.563Z,25.60
2018-06-02T17:25:32.555Z,25.74
2018-06-02T17:28:07.126Z,25.90
2018-06-02T17:30:41.837Z,25.85
2018-06-02T17:33:18.921Z,25.91
2018-06-02T17:35:53.567Z,25.84
2018-06-02T17:38:24.495Z,25.56
2018-06-02T17:40:57.540Z,25.49
2018-06-02T17:43:29.465Z,25.47
2018-06-02T17:46:14.024Z,25.28
2018-06-02T17:48:47.568Z,25.28
2018-06-02T17:51:19.121Z,25.13
2018-06-02T17:53:50.269Z,24.88
2018-06-02T17:56:40.948Z,24.90
2018-06-02T17:59:16.375Z,24.93
2018-06-02T18:01:50.965Z,24.89
2018-06-02T18:04:21.606Z,24.94
2018-06-02T18:07:09.780Z,25.09
2018-06-02T18:09:41.158Z,24.98
2018-06-02T18:12:12.394Z,24.89
2018-06-02T18:15:29.773Z,24.63
2018-06-02T18:18:02.163Z,24.65
2018-06-02T18:20:49.964Z,24.70
2018-06-02T18:23:37.028Z,24.76
2018-06-02T18:26:13.320Z,24.71
2018-06-02T18:28:47.330Z,24.74
2018-06-02T18:31:22.793Z,24.81
2018-06-02T18:33:56.737Z,24.83
2018-06-02T18:36:33.081Z,24.81
2018-06-02T18:39:12.385Z,24.54
2018-06-02T18:42:05.650Z,24.57
2018-06-02T18:44:56.690Z,24.55
2018-06-02T18:47:29.750Z,24.52
2018-06-02T18:50:13.524Z,24.50
2018-06-02T18:52:45.319Z,24.55
2018-06-02T18:55:33.372Z,24.49
2018-06-02T18:58:06.817Z,24.68
2018-06-02T19:00:50.643Z,24.67
2018-06-02T19:03:38.490Z,24.37
2018-06-02T19:06:13.040Z,24.55
2018-06-02T19:08:48.644Z,24.49
2018-06-02T19:11:25.666Z,24.42
2018-06-02T19:13:59.244Z,24.41
2018-06-02T19:16:41.726Z,24.45
2018-06-02T19:19:17.016Z,24.54
2018-06-02T19:21:49.122Z,24.38
2018-06-02T19:24:27.648Z,24.24
2018-06-02T19:27:01.860Z,24.20
2018-06-02T19:29:34.186Z,24.12
2018-06-02T19:32:13.607Z,24.30
2018-06-02T19:34:46.555Z,24.28
2018-06-02T19:37:22.345Z,24.24
2018-06-02T19:39:57.580Z,24.25
2018-06-02T19:42:31.078Z,24.10
2018-06-02T19:45:47.356Z,24.12
2018-06-02T19:48:25.716Z,24.09
2018-06-02T19:51:02.155Z,24.12
2018-06-02T19:53:42.339Z,24.20
2018-06-02T19:56:16.104Z,24.11
2018-06-02T19:58:54.396Z,24.11
2018-06-02T20:01:29.064Z,24.11
2018-06-02T20:06:48.693Z,24.15
2018-06-02T20:09:23.662Z,24.01
2018-06-02T20:12:08.128Z,24.08
2018-06-02T20:14:40.960Z,24.09
2018-06-02T20:17:18.422Z,24.02
2018-06-02T20:20:05.794Z,24.01
2018-06-02T20:22:46.661Z,24.00
2018-06-02T20:25:28.221Z,23.90
2018-06-02T20:28:26.267Z,24.03
2018-06-02T20:31:52.201Z,24.05
2018-06-02T20:34:29.868Z,23.95
2018-06-02T20:37:10.829Z,23.93
2018-06-02T20:50:04.559Z,23.31
2018-06-02T20:52:41.003Z,23.82
2018-06-02T20:55:13.906Z,23.75
2018-06-02T20:57:58.131Z,23.82
2018-06-02T21:00:46.814Z,23.85
2018-06-02T21:03:30.729Z,23.89
2018-06-02T21:06:07.001Z,23.97
2018-06-02T21:08:39.915Z,24.07
2018-06-02T21:11:39.053Z,24.09
2018-06-02T21:14:15.163Z,24.12
2018-06-02T21:16:47.073Z,24.10
2018-06-02T21:19:20.658Z,24.06
2018-06-02T21:22:11.088Z,23.65
2018-06-02T21:24:53.118Z,23.65
2018-06-02T21:27:54.078Z,23.73
2018-06-02T21:30:42.933Z,23.67
2018-06-02T21:33:29.226Z,23.55
2018-06-02T21:36:11.675Z,23.60
2018-06-02T21:38:44.531Z,23.74
2018-06-02T21:41:17.268Z,23.71
2018-06-02T21:43:55.918Z,23.75
2018-06-02T21:46:34.417Z,23.55
2018-06-02T21:49:13.363Z,23.42
2018-06-02T21:52:05.545Z,23.60
2018-06-02T21:54:51.293Z,23.66
2018-06-02T21:57:22.243Z,23.48
2018-06-02T22:00:09.169Z,23.42
2018-06-02T22:02:46.779Z,23.59
2018-06-02T22:05:20.364Z,23.48
2018-06-02T22:07:55.750Z,23.48
2018-06-02T22:10:33.666Z,23.41
2018-06-02T22:13:13.582Z,23.27
2018-06-02T22:15:45.926Z,23.07
2018-06-02T22:18:21.194Z,23.08
2018-06-02T22:21:18.964Z,23.10
2018-06-02T22:23:57.721Z,23.26
2018-06-02T22:26:37.668Z,23.33
2018-06-02T22:29:21.366Z,23.30
2018-06-02T22:31:52.574Z,23.27
2018-06-02T22:34:36.248Z,23.14
2018-06-02T22:37:13.045Z,23.15
2018-06-02T22:39:51.883Z,23.13
2018-06-02T22:42:23.457Z,23.13
2018-06-02T22:44:56.530Z,23.02
2018-06-02T22:47:35.820Z,23.02
2018-06-02T22:50:11.584Z,23.09
2018-06-02T22:52:51.636Z,23.20
2018-06-02T22:55:23.992Z,23.15
2018-06-02T22:57:57.737Z,23.09
2018-06-02T23:00:35.685Z,22.59
2018-06-02T23:06:19.095Z,22.71
2018-06-02T23:08:58.106Z,22.89
2018-06-02T23:11:33.185Z,22.84
2018-06-02T23:14:17.323Z,22.96
2018-06-02T23:17:03.014Z,23.05
2018-06-02T23:19:56.195Z,22.75
2018-06-02T23:22:40.135Z,22.71
2018-06-02T23:25:11.553Z,22.83
2018-06-02T23:27:55.977Z,22.81
2018-06-02T23:30:30.388Z,22.73
2018-06-02T23:38:41.694Z,22.78
2018-06-02T23:41:12.786Z,22.72
2018-06-02T23:43:43.305Z,22.75
2018-06-02T23:46:15.107Z,22.55
2018-06-02T23:48:46.349Z,22.59
2018-06-02T23:51:19.207Z,22.66
2018-06-02T23:53:50.745Z,22.60
2018-06-02T23:56:21.471Z,22.72
2018-06-02T23:58:51.943Z,22.64
